Ana Sayfa
METAR-TAF:

METAR-TAF

Havaalanları :

Akeno, Japonya

Enlem: 34-32N, Boylam: 136-41E, yükseklik: 6 m

Güncel hava durumu gözlemi

Rapor saat 04:01 UTC de 12 saat ve 17 dakika önce yapıldı.
Rüzgar doğudan 4 kt, kuzeydoğu ve doğu/güneydoğu arasında değişken
Sıcaklık 28°C
Nem 70%
Basınç 1009 hPa
Görüş mesafesi 10 km veya daha fazla
2000 ft yükseklikte az bulutlu
10000 ft yükseklikte parçalı bulutlu
15000 ft yükseklikte parçalı çok bulutlu
hafif yağmur

METAR: RJOE 250401Z 08004KT 050V110 9999 -RA FEW020 SCT100 BKN150 28/22 Q1009 RMK 1CU020 3AC100 6AC150 A2980

Saat: 01:18 (16:18 UTC)


TAF: eksik

4.000'den fazla havaalanı için hava durumu gözlemleri ve tahminleri (METAR ve TAF raporları).

Kullanılabilir istasyonlar harita üzerinde sarı ve kırmızı noktalarla gösterilir.

İstasyonun adını görmek için fareyi noktanın üzerinde gezdirin.

Sonrasında hava gözlem ve tahminlerini görmek için tıklayın.

Haritayı değiştirmek için: yaklaştırmak için siyah artı işaretli yeşil düğmeye ve uzaklaştırmak için de eksi işaretli düğmeye hızla tıklayın; bitişik haritalar için yeşil okları kullanın.


METAR-TAF: